This is the latest recevied weather packets stored in our database for station/object HK3BJ-17. If no packets are shown the sender has not sent any weather packets the latest 10 day(s).
| Time | Temp. | Humidity | Pressure | Rain* | Wind** | Luminosity | Snow |
|---|---|---|---|---|---|---|---|
| 1787583002 | 12.78° C | 63% | 1018 hPa | 0 mm | - | - | - |
| 1787582055 | 13.33° C | 63% | 1019 hPa | 0 mm | - | - | - |
| 1787581108 | 10.56° C | 76% | 1019 hPa | 0 mm | - | - | - |
| 1787580166 | 10.56° C | 79% | 1019 hPa | 0 mm | - | - | - |
| 1787579221 | 11.11° C | 80% | 1019 hPa | 0 mm | - | - | - |
| 1787578279 | 9.44° C | 89% | 1019 hPa | 0 mm | - | - | - |
| 1787577339 | 10° C | 90% | 1020 hPa | 0 mm | - | - | - |
| 1787576396 | 10° C | 89% | 1020 hPa | 0 mm | - | - | - |
| 1787574520 | 10° C | 91% | 1020 hPa | 0 mm | - | - | - |
| 1787573577 | 10° C | 91% | 1020 hPa | 0 mm | - | - | - |
| 1787572621 | 10° C | 91% | 1020 hPa | 0 mm | - | - | - |
| 1787571673 | 10° C | 91% | 1020 hPa | 0 mm | - | - | - |
| 1787570728 | 10° C | 91% | 1020 hPa | 0 mm | - | - | - |
| 1787569783 | 10° C | 91% | 1020 hPa | 0 mm | - | - | - |
| 1787568825 | 10° C | 91% | 1020 hPa | 0 mm | - | - | - |
| 1787567886 | 10° C | 91% | 1020 hPa | 0 mm | - | - | - |
| 1787566948 | 10° C | 91% | 1019 hPa | 0 mm | - | - | - |
| 1787566004 | 10° C | 91% | 1019 hPa | 0 mm | - | - | - |
| 1787565064 | 10° C | 91% | 1019 hPa | 0 mm | - | - | - |
| 1787564119 | 10° C | 91% | 1019 hPa | 0 mm | - | - | - |
| 1787563173 | 10° C | 91% | 1019 hPa | 0 mm | - | - | - |
| 1787562230 | 10° C | 91% | 1019 hPa | 0 mm | - | - | - |
| 1787561283 | 10° C | 91% | 1019 hPa | 0 mm | - | - | - |
| 1787560337 | 10° C | 91% | 1019 hPa | 0 mm | - | - | - |
| 1787559393 | 10° C | 91% | 1019 hPa | 0 mm | - | - | - |
* Rain latest hour (hover to see other rain measurements)
** Current wind speed in m/s (hover to see current wind gust speed)